ココス (キーリング) 諸島 の空港の天気 - METARとTAF

ココス島国際空港 ( YPCC / CCK ) - ココス諸島 ココス (キーリング) 諸島
飛行場実況気象(Metar)
観測時間07/29 08:30 CCT (07/29 02:00 UTC)
風向・風速東 7m/s
視程10km以上
天気現象
全天の4割程度の雲 雲底高度 700m
全天の8割程度の雲 雲底高度 980m
全天の8割程度の雲 雲底高度 1680m
気温28℃
湿度74%
気圧1014hPa
METARYPCC 290200Z AUTO 10014KT 9999 // SCT023 BKN032 BKN055 28/23 Q1014
過去の天気等 Google飛行場航空写真 Wunderground天気予報

過去48時間のMETAR

飛行場予報(TAF)
発表時間: 7/29 05:39 CCT (7/28 23:09 UTC)
予報対象時間: 29日6時 CCT ~ 30日6時 CCT
風向・風速東南東 7m/s
視程10km以上
天気現象弱いしゅう雨
全天の4割程度の雲 雲底高度 610m
TAF YPCC 282309Z 2900/3000 11014KT 9999 -SHRA SCT020